createdAt,value
2023-05-14T00:00:04.482Z,9.60
2023-05-14T00:02:52.895Z,9.20
2023-05-14T00:05:21.419Z,9.00
2023-05-14T00:07:49.861Z,9.80
2023-05-14T00:10:19.504Z,8.90
2023-05-14T00:12:48.240Z,8.40
2023-05-14T00:15:17.225Z,9.20
2023-05-14T00:17:45.889Z,8.80
2023-05-14T00:20:14.425Z,9.60
2023-05-14T00:22:43.360Z,9.00
2023-05-14T00:25:11.885Z,9.80
2023-05-14T00:27:40.363Z,9.00
2023-05-14T00:30:08.827Z,9.20
2023-05-14T00:32:37.262Z,9.50
2023-05-14T00:35:06.195Z,10.30
2023-05-14T00:37:35.013Z,9.40
2023-05-14T00:40:03.998Z,9.30
2023-05-14T00:42:33.721Z,9.00
2023-05-14T00:45:02.831Z,9.60
2023-05-14T00:47:31.834Z,9.00
2023-05-14T00:50:00.187Z,8.70
2023-05-14T00:52:28.542Z,9.60
2023-05-14T00:54:57.280Z,9.20
2023-05-14T00:57:25.761Z,9.50
2023-05-14T00:59:54.239Z,9.90
2023-05-14T01:02:22.659Z,9.40
2023-05-14T01:04:52.202Z,9.70
2023-05-14T01:07:50.228Z,9.70
2023-05-14T01:10:44.918Z,9.80
2023-05-14T01:15:43.060Z,11.00
2023-05-14T01:18:14.018Z,11.90
2023-05-14T01:20:42.537Z,11.50
2023-05-14T01:23:11.236Z,11.40
2023-05-14T01:25:39.669Z,11.60
2023-05-14T01:28:11.081Z,11.20
2023-05-14T01:30:52.235Z,10.60
2023-05-14T01:33:22.179Z,9.70
2023-05-14T01:35:53.984Z,11.30
2023-05-14T01:38:23.367Z,10.80
2023-05-14T01:40:52.752Z,10.20
2023-05-14T01:43:21.570Z,11.90
2023-05-14T01:45:50.772Z,10.10
2023-05-14T01:48:19.106Z,10.10
2023-05-14T01:50:47.582Z,10.10
2023-05-14T01:53:15.937Z,10.50
2023-05-14T01:55:44.887Z,10.90
2023-05-14T01:58:13.274Z,9.60
2023-05-14T02:00:41.595Z,11.20
2023-05-14T02:03:10.163Z,10.60
2023-05-14T02:05:38.648Z,9.90
2023-05-14T02:08:07.062Z,10.40
2023-05-14T02:10:35.467Z,10.40
2023-05-14T02:13:04.472Z,10.00
2023-05-14T02:15:32.872Z,10.50
2023-05-14T02:18:01.820Z,10.60
2023-05-14T02:20:30.719Z,11.20
2023-05-14T02:22:59.093Z,10.30
2023-05-14T02:25:27.508Z,10.10
2023-05-14T02:27:56.381Z,10.50
2023-05-14T02:30:25.024Z,10.70
2023-05-14T02:32:53.915Z,10.30
2023-05-14T02:35:23.235Z,11.60
2023-05-14T02:37:51.782Z,12.00
2023-05-14T02:40:20.222Z,10.20
2023-05-14T02:42:48.739Z,9.10
2023-05-14T02:45:17.323Z,9.30
2023-05-14T02:47:46.318Z,9.20
2023-05-14T02:50:15.093Z,9.30
2023-05-14T02:52:43.444Z,9.40
2023-05-14T02:55:12.330Z,9.80
2023-05-14T02:57:40.853Z,9.30
2023-05-14T03:00:09.934Z,9.50
2023-05-14T03:02:39.173Z,9.00
2023-05-14T03:05:08.389Z,9.80
2023-05-14T03:07:36.897Z,8.80
2023-05-14T03:10:06.296Z,9.00
2023-05-14T03:12:34.736Z,9.00
2023-05-14T03:15:03.096Z,9.40
2023-05-14T03:17:31.496Z,9.10
2023-05-14T03:19:59.917Z,9.40
2023-05-14T03:22:28.355Z,8.20
2023-05-14T03:24:56.843Z,8.20
2023-05-14T03:27:25.266Z,9.30
2023-05-14T03:29:53.687Z,8.90
2023-05-14T03:32:22.188Z,9.20
2023-05-14T03:34:50.664Z,9.00
2023-05-14T03:37:18.982Z,9.50
2023-05-14T03:39:47.378Z,8.10
2023-05-14T03:42:16.375Z,8.50
2023-05-14T03:44:44.942Z,8.70
2023-05-14T03:47:13.339Z,8.70
2023-05-14T03:49:41.851Z,9.00
2023-05-14T03:52:10.229Z,8.60
2023-05-14T03:54:39.175Z,9.40
2023-05-14T03:57:07.700Z,9.20
2023-05-14T03:59:36.048Z,9.60
2023-05-14T04:02:04.976Z,9.30
2023-05-14T04:04:33.765Z,8.50
2023-05-14T04:07:02.196Z,9.10
2023-05-14T04:09:30.806Z,9.30
2023-05-14T04:11:59.191Z,9.50
2023-05-14T04:14:27.703Z,9.30
2023-05-14T04:16:56.087Z,9.60
2023-05-14T04:19:25.116Z,8.90
2023-05-14T04:21:53.484Z,9.10
2023-05-14T04:24:22.335Z,9.40
2023-05-14T04:26:50.768Z,8.70
2023-05-14T04:29:19.179Z,9.10
2023-05-14T04:31:47.625Z,9.60
2023-05-14T04:34:16.496Z,8.90
2023-05-14T04:36:45.805Z,8.60
2023-05-14T04:39:14.293Z,9.00
2023-05-14T04:41:43.340Z,9.30
2023-05-14T04:44:13.272Z,9.50
2023-05-14T04:46:41.702Z,9.40
2023-05-14T04:49:10.116Z,9.50
2023-05-14T04:51:38.540Z,9.10
2023-05-14T04:54:06.988Z,9.10
2023-05-14T04:56:35.876Z,9.10
2023-05-14T04:59:04.814Z,9.50
2023-05-14T05:01:33.998Z,8.40
2023-05-14T05:04:02.625Z,8.80
2023-05-14T05:06:32.149Z,8.90
2023-05-14T05:09:02.118Z,9.10
2023-05-14T05:11:30.920Z,8.20
2023-05-14T05:13:59.849Z,9.20
2023-05-14T05:16:28.438Z,8.60
2023-05-14T05:18:57.434Z,7.70
2023-05-14T05:21:26.637Z,9.20
2023-05-14T05:23:55.438Z,8.90
2023-05-14T05:26:25.112Z,9.20
2023-05-14T05:28:54.086Z,8.30
2023-05-14T05:31:22.546Z,7.80
2023-05-14T05:33:50.914Z,7.40
2023-05-14T05:36:19.339Z,7.80
2023-05-14T05:38:47.771Z,7.50
2023-05-14T05:41:16.261Z,7.80
2023-05-14T05:43:44.725Z,8.10
2023-05-14T05:46:13.036Z,8.60
2023-05-14T05:48:41.540Z,7.20
2023-05-14T05:51:09.951Z,7.10
2023-05-14T05:53:38.322Z,8.30
2023-05-14T05:56:07.137Z,8.50
2023-05-14T05:58:35.998Z,7.70
2023-05-14T06:01:04.407Z,7.40
2023-05-14T06:03:32.935Z,7.30
2023-05-14T06:06:01.235Z,8.20
2023-05-14T06:08:29.786Z,7.90
2023-05-14T06:10:58.270Z,7.90
2023-05-14T06:13:26.846Z,8.50
2023-05-14T06:15:55.305Z,8.00
2023-05-14T06:18:23.785Z,7.60
2023-05-14T06:20:52.248Z,7.40
2023-05-14T06:23:20.721Z,7.50
2023-05-14T06:25:50.850Z,7.30
2023-05-14T06:28:19.428Z,7.90
2023-05-14T06:30:50.098Z,7.90
2023-05-14T06:33:20.609Z,7.30
2023-05-14T06:35:49.135Z,7.10
2023-05-14T06:38:18.276Z,6.90
2023-05-14T06:40:47.329Z,6.40
2023-05-14T06:43:16.407Z,6.30
2023-05-14T06:45:44.813Z,6.00
2023-05-14T06:48:13.926Z,5.80
2023-05-14T06:50:43.332Z,5.70
2023-05-14T06:53:11.783Z,6.10
2023-05-14T06:55:40.428Z,4.80
2023-05-14T06:58:09.241Z,4.90
2023-05-14T07:00:37.797Z,4.60
2023-05-14T07:03:06.889Z,5.70
2023-05-14T07:05:35.566Z,4.30
2023-05-14T07:08:04.182Z,4.30
2023-05-14T07:10:33.047Z,3.90
2023-05-14T07:13:01.718Z,3.80
2023-05-14T07:15:34.639Z,4.40
2023-05-14T07:18:03.559Z,4.20
2023-05-14T07:20:32.100Z,4.70
2023-05-14T07:23:00.704Z,3.80
2023-05-14T07:25:29.615Z,3.50
2023-05-14T07:27:58.083Z,3.80
2023-05-14T07:30:26.743Z,4.00
2023-05-14T07:32:56.017Z,3.40
2023-05-14T07:35:24.633Z,3.60
2023-05-14T07:37:53.136Z,3.90
2023-05-14T07:40:22.956Z,4.40
2023-05-14T07:42:56.088Z,3.80
2023-05-14T07:45:24.660Z,5.50
2023-05-14T07:47:53.453Z,4.20
2023-05-14T07:50:22.609Z,4.50
2023-05-14T07:52:52.169Z,4.30
2023-05-14T07:55:21.353Z,4.00
2023-05-14T07:57:53.387Z,4.10
2023-05-14T08:00:22.732Z,4.00
2023-05-14T08:02:52.398Z,4.40
2023-05-14T08:05:21.703Z,4.10
2023-05-14T08:07:50.278Z,4.00
2023-05-14T08:10:20.324Z,3.90
2023-05-14T08:12:49.682Z,3.70
2023-05-14T08:15:18.751Z,4.10
2023-05-14T08:17:47.978Z,3.30
2023-05-14T08:20:16.856Z,3.20
2023-05-14T08:22:46.104Z,4.40
2023-05-14T08:25:15.190Z,3.80
2023-05-14T08:27:43.780Z,4.40
2023-05-14T08:30:12.524Z,3.80
2023-05-14T08:32:41.587Z,4.50
2023-05-14T08:35:10.540Z,3.70
2023-05-14T08:37:39.660Z,3.70
2023-05-14T08:40:09.269Z,4.50
2023-05-14T08:42:42.226Z,4.00
2023-05-14T08:45:11.448Z,4.20
2023-05-14T08:47:40.391Z,3.80
2023-05-14T08:50:09.540Z,4.00
2023-05-14T08:52:38.432Z,22.00
2023-05-14T08:55:08.338Z,5.90
2023-05-14T08:57:37.136Z,4.20
2023-05-14T09:00:09.207Z,4.30
2023-05-14T09:02:40.286Z,4.90
2023-05-14T09:05:09.697Z,3.90
2023-05-14T09:07:38.867Z,4.10
2023-05-14T09:10:09.386Z,4.50
2023-05-14T09:12:37.874Z,4.10
2023-05-14T09:15:06.869Z,4.30
2023-05-14T09:17:35.565Z,4.10
2023-05-14T09:20:04.999Z,3.90
2023-05-14T09:22:34.759Z,3.70
2023-05-14T09:25:04.179Z,4.00
2023-05-14T09:27:33.340Z,4.30
2023-05-14T09:30:05.333Z,4.60
2023-05-14T09:32:38.458Z,4.10
2023-05-14T09:37:42.134Z,4.80
2023-05-14T09:40:12.361Z,4.30
2023-05-14T09:42:41.994Z,3.70
2023-05-14T09:45:11.131Z,3.50
2023-05-14T09:47:40.138Z,3.10
2023-05-14T09:50:09.502Z,3.50
2023-05-14T09:52:39.189Z,3.40
2023-05-14T09:55:08.457Z,3.50
2023-05-14T09:57:37.484Z,3.90
2023-05-14T10:00:07.111Z,3.40
2023-05-14T10:02:41.580Z,3.90
2023-05-14T10:05:10.738Z,3.50
2023-05-14T10:07:42.110Z,4.30
2023-05-14T10:10:13.078Z,3.70
2023-05-14T10:12:42.895Z,3.50
2023-05-14T10:15:17.799Z,3.60
2023-05-14T10:17:48.984Z,3.70
2023-05-14T10:20:18.338Z,4.30
2023-05-14T10:22:46.831Z,4.00
2023-05-14T10:25:16.701Z,13.80
2023-05-14T10:27:45.612Z,4.00
2023-05-14T10:30:14.486Z,3.80
2023-05-14T10:32:44.629Z,4.00
2023-05-14T10:35:20.887Z,3.50
2023-05-14T10:37:51.834Z,3.80
2023-05-14T10:40:20.563Z,3.50
2023-05-14T10:42:49.134Z,3.60
2023-05-14T10:45:17.800Z,3.90
2023-05-14T10:47:47.639Z,3.70
2023-05-14T10:50:16.556Z,3.70
2023-05-14T10:52:46.014Z,3.80
2023-05-14T10:55:15.152Z,3.30
2023-05-14T10:57:45.251Z,3.20
2023-05-14T11:00:14.878Z,3.50
2023-05-14T11:02:44.545Z,3.80
2023-05-14T11:05:17.924Z,3.40
2023-05-14T11:10:16.955Z,3.30
2023-05-14T11:12:47.208Z,3.10
2023-05-14T11:15:20.220Z,3.70
2023-05-14T11:17:49.913Z,3.00
2023-05-14T11:20:19.037Z,4.30
2023-05-14T11:22:48.333Z,4.40
2023-05-14T11:25:18.052Z,4.40
2023-05-14T11:27:47.778Z,3.60
2023-05-14T11:30:17.555Z,3.70
2023-05-14T11:32:47.123Z,3.70
2023-05-14T11:35:16.421Z,3.90
2023-05-14T11:37:50.793Z,3.30
2023-05-14T11:40:19.982Z,3.20
2023-05-14T11:42:51.072Z,3.00
2023-05-14T11:45:26.732Z,3.70
2023-05-14T11:47:56.279Z,3.30
2023-05-14T11:50:25.351Z,4.40
2023-05-14T11:52:57.011Z,2.90
2023-05-14T11:55:25.524Z,2.90
2023-05-14T11:57:54.184Z,3.60
2023-05-14T12:00:24.479Z,2.40
2023-05-14T12:02:53.521Z,3.20
2023-05-14T12:05:22.286Z,3.00
2023-05-14T12:07:51.136Z,2.60
2023-05-14T12:10:20.102Z,2.70
2023-05-14T12:12:48.836Z,2.30
2023-05-14T12:15:18.391Z,3.30
2023-05-14T12:17:50.916Z,3.20
2023-05-14T12:20:19.508Z,2.90
2023-05-14T12:22:47.970Z,2.90
2023-05-14T12:25:16.321Z,2.90
2023-05-14T12:27:45.801Z,3.20
2023-05-14T12:32:47.031Z,3.00
2023-05-14T12:35:15.434Z,3.50
2023-05-14T12:37:43.923Z,4.10
2023-05-14T12:40:13.189Z,3.50
2023-05-14T12:42:42.090Z,2.80
2023-05-14T12:45:10.716Z,3.20
2023-05-14T12:47:39.263Z,2.60
2023-05-14T12:50:07.982Z,3.00
2023-05-14T12:52:39.244Z,2.90
2023-05-14T12:55:09.834Z,2.80
2023-05-14T12:57:39.616Z,2.70
2023-05-14T13:00:21.622Z,3.10
2023-05-14T13:02:50.273Z,3.80
2023-05-14T13:05:19.349Z,3.10
2023-05-14T13:07:47.751Z,4.30
2023-05-14T13:10:18.756Z,3.10
2023-05-14T13:12:47.574Z,5.10
2023-05-14T13:15:16.033Z,36.10
2023-05-14T13:17:44.998Z,3.70
2023-05-14T13:20:13.646Z,2.90
2023-05-14T13:22:42.106Z,5.30
2023-05-14T13:25:11.036Z,4.60
2023-05-14T13:27:39.433Z,3.20
2023-05-14T13:30:08.051Z,3.40
2023-05-14T13:32:37.066Z,3.70
2023-05-14T13:35:05.757Z,4.50
2023-05-14T13:37:34.169Z,4.70
2023-05-14T13:40:04.652Z,3.70
2023-05-14T13:42:40.232Z,3.50
2023-05-14T13:45:09.171Z,3.20
2023-05-14T13:47:37.511Z,3.90
2023-05-14T13:50:06.272Z,3.70
2023-05-14T13:52:35.376Z,7.70
2023-05-14T13:55:04.454Z,5.40
2023-05-14T13:57:33.282Z,4.50
2023-05-14T14:00:01.685Z,4.40
2023-05-14T14:02:31.284Z,4.00
2023-05-14T14:05:00.543Z,4.00
2023-05-14T14:07:28.986Z,3.80
2023-05-14T14:09:57.696Z,3.20
2023-05-14T14:12:26.957Z,2.90
2023-05-14T14:14:55.572Z,3.10
2023-05-14T14:17:24.453Z,3.80
2023-05-14T14:19:52.877Z,3.40
2023-05-14T14:22:21.226Z,3.00
2023-05-14T14:24:50.092Z,3.00
2023-05-14T14:27:18.910Z,3.00
2023-05-14T14:29:47.701Z,3.40
2023-05-14T14:32:16.098Z,3.10
2023-05-14T14:34:45.010Z,3.60
2023-05-14T14:37:13.804Z,2.90
2023-05-14T14:39:42.168Z,3.00
2023-05-14T14:42:10.733Z,2.80
2023-05-14T14:44:39.075Z,3.50
2023-05-14T14:47:08.291Z,10.10
2023-05-14T14:49:37.031Z,5.20
2023-05-14T14:52:06.098Z,6.90
2023-05-14T14:54:35.111Z,7.20
2023-05-14T14:57:03.633Z,7.50
2023-05-14T14:59:32.738Z,4.30
2023-05-14T15:02:01.191Z,3.70
2023-05-14T15:04:33.241Z,3.40
2023-05-14T15:07:02.746Z,10.50
2023-05-14T15:09:32.169Z,2.30
2023-05-14T15:12:00.711Z,2.40
2023-05-14T15:14:29.259Z,2.00
2023-05-14T15:16:57.855Z,1.80
2023-05-14T15:19:26.931Z,2.10
2023-05-14T15:21:55.642Z,1.90
2023-05-14T15:24:25.517Z,1.90
2023-05-14T15:26:54.108Z,2.40
2023-05-14T15:29:23.100Z,2.10
2023-05-14T15:31:52.089Z,2.30
2023-05-14T15:34:21.075Z,2.10
2023-05-14T15:36:49.538Z,2.00
2023-05-14T15:39:17.948Z,2.10
2023-05-14T15:41:46.741Z,1.90
2023-05-14T15:44:15.194Z,3.10
2023-05-14T15:46:43.900Z,2.50
2023-05-14T15:49:12.832Z,2.40
2023-05-14T15:51:41.357Z,2.00
2023-05-14T15:54:09.792Z,2.10
2023-05-14T15:56:38.725Z,2.10
2023-05-14T15:59:07.207Z,2.30
2023-05-14T16:01:35.815Z,2.60
2023-05-14T16:04:04.953Z,2.10
2023-05-14T16:06:34.348Z,2.20
2023-05-14T16:09:03.614Z,1.60
2023-05-14T16:11:32.222Z,2.10
2023-05-14T16:14:00.700Z,2.30
2023-05-14T16:16:29.693Z,2.00
2023-05-14T16:18:59.371Z,1.90
2023-05-14T16:21:27.875Z,2.40
2023-05-14T16:23:57.026Z,2.10
2023-05-14T16:26:26.574Z,1.90
2023-05-14T16:28:55.669Z,2.10
2023-05-14T16:31:24.684Z,1.80
2023-05-14T16:33:53.571Z,1.80
2023-05-14T16:36:22.709Z,1.60
2023-05-14T16:39:06.853Z,1.60
2023-05-14T16:41:36.696Z,2.50
2023-05-14T16:44:05.821Z,3.30
2023-05-14T16:46:34.956Z,2.40
2023-05-14T16:49:03.843Z,1.80
2023-05-14T16:51:33.266Z,2.40
2023-05-14T16:54:02.363Z,6.10
2023-05-14T16:56:32.725Z,2.50
2023-05-14T16:59:01.357Z,3.10
2023-05-14T17:01:31.007Z,1.80
2023-05-14T17:03:59.668Z,1.90
2023-05-14T17:06:29.164Z,1.90
2023-05-14T17:08:58.547Z,2.00
2023-05-14T17:11:27.564Z,1.90
2023-05-14T17:14:00.804Z,1.60
2023-05-14T17:16:28.485Z,1.90
2023-05-14T17:18:56.492Z,1.90
2023-05-14T17:21:25.835Z,2.80
2023-05-14T17:23:54.236Z,2.00
2023-05-14T17:26:23.328Z,1.70
2023-05-14T17:28:51.967Z,2.60
2023-05-14T17:31:22.236Z,2.20
2023-05-14T17:33:50.962Z,2.20
2023-05-14T17:36:19.759Z,2.30
2023-05-14T17:38:48.470Z,7.10
2023-05-14T17:41:16.944Z,2.90
2023-05-14T17:43:46.828Z,2.30
2023-05-14T17:46:15.931Z,2.30
2023-05-14T17:48:44.809Z,2.80
2023-05-14T17:51:15.645Z,2.70
2023-05-14T17:53:44.220Z,2.30
2023-05-14T17:56:14.304Z,2.20
2023-05-14T17:58:44.992Z,2.10
2023-05-14T18:01:14.018Z,2.70
2023-05-14T18:03:44.491Z,2.90
2023-05-14T18:06:13.911Z,3.70
2023-05-14T18:08:43.241Z,4.10
2023-05-14T18:11:12.342Z,4.10
2023-05-14T18:13:43.576Z,3.30
2023-05-14T18:16:12.433Z,2.60
2023-05-14T18:18:41.666Z,3.80
2023-05-14T18:21:10.455Z,3.40
2023-05-14T18:23:40.464Z,4.30
2023-05-14T18:26:10.138Z,2.90
2023-05-14T18:28:39.289Z,3.70
2023-05-14T18:31:09.027Z,4.10
2023-05-14T18:33:37.823Z,4.50
2023-05-14T18:36:06.999Z,3.80
2023-05-14T18:38:38.019Z,4.80
2023-05-14T18:41:07.384Z,4.50
2023-05-14T18:43:48.379Z,6.20
2023-05-14T18:46:17.411Z,10.70
2023-05-14T18:48:46.738Z,6.90
2023-05-14T18:51:17.013Z,5.80
2023-05-14T18:53:45.604Z,5.40
2023-05-14T18:56:15.348Z,6.50
2023-05-14T18:58:43.968Z,8.50
2023-05-14T19:01:12.613Z,7.50
2023-05-14T19:03:43.016Z,9.20
2023-05-14T19:06:12.396Z,8.80
2023-05-14T19:08:43.047Z,9.50
2023-05-14T19:11:11.684Z,6.90
2023-05-14T19:13:40.781Z,10.10
2023-05-14T19:16:11.253Z,9.50
2023-05-14T19:18:40.378Z,8.30
2023-05-14T19:21:09.722Z,7.30
2023-05-14T19:23:38.869Z,5.60
2023-05-14T19:26:08.174Z,5.20
2023-05-14T19:28:39.178Z,5.40
2023-05-14T19:31:07.871Z,8.00
2023-05-14T19:33:36.283Z,6.30
2023-05-14T19:36:05.998Z,5.30
2023-05-14T19:38:35.164Z,7.40
2023-05-14T19:41:04.720Z,8.80
2023-05-14T19:43:34.311Z,11.30
2023-05-14T19:46:03.877Z,15.70
2023-05-14T19:48:33.893Z,14.60
2023-05-14T19:51:02.757Z,17.00
2023-05-14T19:53:32.029Z,18.10
2023-05-14T19:56:02.376Z,16.70
2023-05-14T19:58:31.734Z,13.90
2023-05-14T20:01:01.092Z,15.30
2023-05-14T20:03:30.227Z,13.40
2023-05-14T20:05:59.188Z,12.70
2023-05-14T20:08:29.461Z,10.20
2023-05-14T20:10:57.994Z,5.70
2023-05-14T20:13:26.880Z,7.30
2023-05-14T20:15:55.646Z,7.60
2023-05-14T20:18:24.786Z,7.20
2023-05-14T20:20:53.585Z,8.10
2023-05-14T20:23:22.131Z,8.20
2023-05-14T20:25:51.990Z,7.60
2023-05-14T20:28:20.654Z,6.10
2023-05-14T20:30:50.740Z,5.60
2023-05-14T20:33:19.853Z,5.60
2023-05-14T20:35:48.666Z,5.60
2023-05-14T20:38:18.887Z,4.50
2023-05-14T20:40:48.100Z,4.90
2023-05-14T20:43:23.457Z,3.80
2023-05-14T20:45:52.069Z,3.70
2023-05-14T20:48:22.420Z,3.50
2023-05-14T20:50:52.046Z,3.40
2023-05-14T20:53:21.533Z,3.60
2023-05-14T20:55:50.103Z,3.80
2023-05-14T20:58:18.584Z,3.60
2023-05-14T21:00:47.037Z,5.20
2023-05-14T21:03:15.856Z,4.60
2023-05-14T21:05:44.655Z,3.70
2023-05-14T21:08:13.705Z,4.10
2023-05-14T21:10:42.784Z,3.90
2023-05-14T21:13:11.330Z,3.60
2023-05-14T21:15:39.758Z,3.60
2023-05-14T21:18:09.050Z,3.20
2023-05-14T21:20:37.491Z,3.50
2023-05-14T21:23:06.037Z,2.90
2023-05-14T21:25:34.726Z,3.60
2023-05-14T21:28:03.892Z,3.20
2023-05-14T21:30:32.425Z,3.50
2023-05-14T21:33:01.155Z,3.40
2023-05-14T21:35:30.354Z,3.50
2023-05-14T21:37:58.982Z,3.30
2023-05-14T21:40:28.009Z,3.10
2023-05-14T21:42:59.174Z,3.70
2023-05-14T21:45:28.155Z,3.40
2023-05-14T21:47:57.536Z,4.20
2023-05-14T21:50:27.510Z,3.30
2023-05-14T21:52:56.229Z,3.40
2023-05-14T21:55:27.394Z,3.40
2023-05-14T21:57:56.663Z,3.70
2023-05-14T22:00:25.767Z,3.30
2023-05-14T22:03:21.928Z,3.80
2023-05-14T22:05:51.188Z,4.30
2023-05-14T22:08:19.598Z,4.80
2023-05-14T22:10:48.670Z,4.00
2023-05-14T22:13:17.099Z,4.00
2023-05-14T22:15:45.940Z,4.10
2023-05-14T22:18:15.971Z,4.10
2023-05-14T22:20:44.480Z,4.20
2023-05-14T22:23:13.596Z,4.40
2023-05-14T22:25:42.090Z,4.50
2023-05-14T22:28:11.116Z,4.30
2023-05-14T22:30:39.767Z,4.20
2023-05-14T22:33:08.307Z,4.20
2023-05-14T22:35:36.961Z,4.30
2023-05-14T22:38:05.334Z,4.60
2023-05-14T22:40:34.502Z,4.50
2023-05-14T22:43:03.647Z,4.40
2023-05-14T22:45:32.313Z,4.60
2023-05-14T22:48:00.809Z,5.00
2023-05-14T22:50:29.570Z,5.00
2023-05-14T22:52:58.643Z,4.90
2023-05-14T22:55:27.588Z,4.50
2023-05-14T22:57:56.714Z,4.90
2023-05-14T23:00:25.968Z,5.70
2023-05-14T23:02:55.063Z,4.40
2023-05-14T23:05:24.223Z,5.00
2023-05-14T23:07:53.756Z,4.70
2023-05-14T23:10:22.880Z,4.50
2023-05-14T23:12:51.963Z,4.90
2023-05-14T23:15:20.369Z,4.80
2023-05-14T23:17:49.358Z,4.60
2023-05-14T23:20:17.873Z,4.50
2023-05-14T23:22:46.873Z,4.50
2023-05-14T23:25:15.569Z,4.50
2023-05-14T23:27:44.272Z,4.50
2023-05-14T23:30:12.970Z,4.80
2023-05-14T23:32:41.661Z,4.20
2023-05-14T23:35:10.742Z,4.50
2023-05-14T23:37:43.367Z,4.20
2023-05-14T23:40:12.428Z,4.10
2023-05-14T23:42:40.995Z,4.40
2023-05-14T23:45:10.357Z,4.90
2023-05-14T23:47:39.123Z,4.40
2023-05-14T23:50:08.453Z,4.20
2023-05-14T23:52:37.451Z,4.50
2023-05-14T23:55:06.805Z,4.30
2023-05-14T23:57:36.363Z,4.30
